DIVISION OF AGRICULTURAL PHYSICS
INDIAN AGRICULTURAL RESEARCH INSTITUTE
NEW DELHI, INDIA-110012
Phone No. 011-25843014

(IARI: Latitude: 280 38'23"N, Longitude:770 09'27"E., Altitude: 228.61m above msl.)
Duration of data : Last 60 days
Date Max.
Temp.
(oC)
Min.
Temp.
(oC)
Rainfall
(mm)
Wind
Speed
(Kmph)
Wind
Direction-I
Wind
Direction-II
Weather
condition-I
(Code 0-9)
Weather
condition-II
(Code 0-9)
RH-I
(%)
RH-II
(%)
BSS
(hrs)
Evaporation
(mm)
2019-02-18 20.5 10.4 0.00 4.4 C SE 4 0 93.0 67.0 7.0 1.7
2019-02-19 24.0 10.9 3.80 4.0 C W 4 1 98.0 68.0 4.3 2.2
2019-02-20 23.0 14.5 0.00 2.3 E E 4 1 94.0 84.0 2.0 1.7
2019-02-21 21.0 14.0 0.00 3.6 C SE 4 0 89.0 75.0 0.0 1.4
2019-02-22 26.0 16.0 0.00 4.9 NW W 4 0 96.0 80.0 5.4 2.2
2019-02-23 22.0 10.0 0.00 9.2 W W 4 0 93.0 71.0 6.4 1.8
2019-02-24 21.0 11.8 0.00 7.1 C W 4 0 88.0 63.0 8.2 2.2
2019-02-25 23.0 7.0 0.00 2.9 C E 4 1 97.0 66.0 8.6 2.5
2019-02-26 23.2 8.8 4.60 4.1 C SE 4 1 97.0 76.0 4.6 1.9
2019-02-27 21.0 10.0 0.00 4.5 NW NW 4 1 95.0 65.0 0.3 1.5
2019-02-28 19.2 5.2 0.00 3.6 C NW 4 0 97.0 72.0 6.4 1.7
2019-03-01 20.2 5.0 0.00 4.4 C NW 4 0 94.0 64.0 8.0 1.8
2019-03-02 22.5 11.2 0.80 1.7 C E 4 1 98.0 78.0 8.8 1.8
2019-03-03 18.0 11.8 9.20 5.2 C S 4 1 98.0 80.0 0.0 1.4
2019-03-04 22.0 10.0 0.00 2.3 C NW 4 1 97.0 81.0 4.3 1.7
2019-03-05 22.6 11.2 0.00 5.2 C NW 4 1 97.0 75.0 4.6 1.5
2019-03-06 22.4 7.4 0.00 4.4 C NW 4 0 97.0 68.0 6.6 1.8
2019-03-07 23.8 7.5 0.00 4.0 C NW 4 0 97.0 66.0 8.9 2.2
2019-03-08 25.5 9.2 0.00 2.9 C NW 4 1 98.0 64.0 9.0 2.4
2019-03-09 25.5 12.0 0.00 3.8 C NW 4 0 91.0 68.0 6.2 2.2
2019-03-10 25.4 10.6 0.00 5.5 C NE 0 0 93.0 61.0 9.0 2.5
2019-03-11 25.8 11.8 0.00 3.2 SE S 0 1 83.0 78.0 9.8 2.8
2019-03-12 27.2 12.0 0.00 5.8 SE NW 0 1 84.0 66.0 7.2 2.9
2019-03-13 26.6 14.0 0.00 4.7 C E 1 1 98.0 86.0 5.9 2.2
2019-03-14 24.0 9.8 0.00 1.9 N N 4 2 98.0 82.0 0.3 1.8
2019-03-15 23.7 9.0 0.00 5.0 C W 4 0 97.0 74.0 3.4 1.5
2019-03-16 25.0 12.5 0.00 6.1 NW N 1 0 93.0 67.0 9.0 2.2
2019-03-17 25.0 12.4 0.00 4.0 C NW 4 0 89.0 28.0 6.2 2.8
2019-03-18 26.6 9.8 0.00 3.3 C W 4 0 90.0 33.0 9.2 2.5
2019-03-19 27.2 10.5 0.00 3.1 C W 4 0 98.0 28.0 8.2 3.0
2019-03-20 30.4 14.8 0.00 3.2 SE C 1 1 72.0 36.0 9.3 3.4
2019-03-21 32.8 14.8 0.00 4.0 N W 4 0 87.0 36.0 7.3 4.1
2019-03-22 30.6 14.7 0.00 4.5 W NW 0 0 67.0 32.0 7.4 4.7
2019-03-23 28.6 16.2 0.00 7.8 N N 0 0 67.0 38.0 9.9 4.3
2019-03-24 29.3 14.0 0.00 5.5 S W 0 0 82.0 36.0 9.7 4.5
2019-03-25 30.6 13.9 0.00 6.3 N N 2 0 84.0 46.0 8.9 4.9
2019-03-26 29.5 15.4 0.00 6.0 N NNW 0 0 70.0 55.0 8.0 4.8
2019-03-27 29.5 13.2 0.00 4.9 C N 0 1 90.0 58.0 9.6 4.5
2019-03-28 30.8 14.8 0.00 3.8 C NW 0 0 96.0 51.0 7.7 4.7
2019-03-29 34.2 16.8 0.00 1.7 C W 0 0 96.0 55.0 8.9 5.2
2019-03-30 35.7 17.4 0.00 2.4 C SE 0 0 89.0 47.0 7.4 5.3
2019-03-31 37.4 20.8 0.20 3.5 C NW 0 0 78.0 46.0 8.2 4.2
2019-04-01 34.0 16.2 0.00 7.9 W W 0 0 78.0 47.0 10.6 3.9
2019-04-02 32.8 13.5 0.00 6.4 C SE 0 0 94.0 38.0 10.0 3.5
2019-04-03 34.2 15.6 0.00 2.5 C NW 0 0 83.0 45.0 10.0 4.2
2019-04-04 35.6 17.0 0.00 3.1 C N 0 0 91.0 40.0 9.8 4.5
2019-04-05 37.4 18.4 0.00 2.4 C NW 0 0 91.0 47.0 10.0 5.2
2019-04-06 38.4 20.4 0.00 3.2 C NW 0 0 72.0 45.0 9.9 5.5
2019-04-07 38.0 23.5 0.00 3.1 N ESE 0 0 77.0 64.0 8.4 6.0
2019-04-08 34.4 18.9 1.40 3.2 C N 0 0 94.0 48.0 3.5 5.0
2019-04-09 35.7 18.9 0.00 5.6 C NE 0 0 94.0 51.0 6.2 4.9
2019-04-10 36.6 19.0 0.00 2.9 C NNW 0 0 71.0 52.0 8.4 4.2
2019-04-11 38.6 21.4 0.00 4.0 C N 0 0 72.0 36.0 9.1 4.5
2019-04-12 38.4 23.4 0.00 5.5 C N 0 0 69.0 48.0 8.8 5.3
2019-04-13 36.8 21.8 0.00 4.8 NW N 0 0 63.0 42.0 7.7 4.2
2019-04-14 37.2 22.5 0.00 7.0 C NW 0 0 64.0 39.0 9.2 6.5
2019-04-15 38.4 23.2 0.00 7.0 W N 0 0 66.0 42.0 8.4 7.2
2019-04-16 40.2 23.8 2.20 8.3 NW E 1 1 81.0 58.0 9.8 4.7
2019-04-17 30.0 18.0 2.10 8.6 S SE 1 1 79.0 62.0 0.2 3.6
2019-04-18 29.4 26.4 0.00 7.4 W 1 0 82.0 0.0 4.1 6.0

Abbrevations used:
I - Observations taken at 7.21 hrs. and II - Observations taken at 14:21 hrs.
Codes:
0 - Fair (clear and slightly clouded), 1 - Variable Sky, 2 - Mainly Overcast, 3 - Sand Storm or Dust Storm,4 - Fog or Thick Dust Haze, 5 - Drizzle, 6 - Rain,7 - Snow or Sleet, 8 - Shower (s), 9 - Thunder Storm with or without Precipitation